Terminal Aerodrome Forecast
Issued by NWS

Home | Current Version | Previous Version | Text Only | Print | Product List | Glossary On
Versions: 1 2 3 4 5 6 7 8 9 10 11 12 13 14 15 16 17 18 19 20 21 22 23 24
000
FTUS41 KILN 310227 AAA
TAFLUK
TAF AMD
KLUK 310227Z 3102/3124 19003KT P6SM FEW040 BKN250
     FM310400 00000KT 3SM BR FEW050 BKN250
     FM310800 20003KT 1/4SM FG VV002
     FM311300 00000KT 2SM BR FEW002 SCT020 BKN250
     FM311400 23005KT P6SM FEW022 SCT100
     FM311800 24006KT P6SM VCSH BKN040=

USA.gov is the U.S. government's official web portal to all federal, state and local government web resources and services.